Plainfield Center, New York
Current Conditions -  °F | °C
As of 3:53 PM on Monday 22 Dec 2014 (Local Time) from KRME Reporting Station
Overcast Overcast  
Wind Chill: 27°   Ceiling: 3500
Heat Index: 35°   Visibility: 10mi
Dew Point: 29°   Wind: 10mph
Humidity: 78%   Direction: 130°SE
Pressure: 30.23"   Gusts: NA
Location:  42.8676°N, 75.1875°W
Report Text: KRME 222053Z 13009KT 10SM OVC035 02/M02 A3023 RMK AO2 SLP240 T00171017 55006
Loading
Personal Weather Stations






























Interactive Weather Map New forecast layout! Learn more

10-Day Weather Forecast

Advertisements
Track Severe Weather on mobile